createdAt,value
2022-11-14T00:00:52.400Z,9.05
2022-11-14T00:03:18.765Z,9.03
2022-11-14T00:05:46.218Z,9.13
2022-11-14T00:08:17.100Z,9.37
2022-11-14T00:10:47.753Z,8.87
2022-11-14T00:13:14.902Z,9.26
2022-11-14T00:15:41.497Z,8.37
2022-11-14T00:18:08.176Z,8.98
2022-11-14T00:20:34.491Z,8.83
2022-11-14T00:23:00.892Z,9.04
2022-11-14T00:25:27.393Z,8.81
2022-11-14T00:27:57.514Z,9.01
2022-11-14T00:30:24.081Z,8.57
2022-11-14T00:32:50.483Z,8.87
2022-11-14T00:35:17.021Z,8.96
2022-11-14T00:37:43.479Z,8.78
2022-11-14T00:40:10.057Z,8.70
2022-11-14T00:42:36.495Z,8.89
2022-11-14T00:45:03.204Z,8.70
2022-11-14T00:47:29.554Z,8.75
2022-11-14T00:49:55.896Z,8.69
2022-11-14T00:52:22.232Z,8.64
2022-11-14T00:54:48.619Z,8.77
2022-11-14T00:57:14.942Z,8.78
2022-11-14T00:59:41.304Z,8.73
2022-11-14T01:02:07.661Z,8.44
2022-11-14T01:04:34.296Z,8.65
2022-11-14T01:07:00.718Z,8.40
2022-11-14T01:09:27.180Z,8.66
2022-11-14T01:11:53.632Z,8.30
2022-11-14T01:14:20.040Z,7.42
2022-11-14T01:16:46.382Z,7.80
2022-11-14T01:19:12.729Z,8.05
2022-11-14T01:21:39.150Z,7.79
2022-11-14T01:24:06.078Z,7.32
2022-11-14T01:26:32.410Z,7.82
2022-11-14T01:28:58.982Z,8.05
2022-11-14T01:31:26.125Z,8.25
2022-11-14T01:33:53.784Z,8.15
2022-11-14T01:36:20.728Z,8.07
2022-11-14T01:38:47.136Z,8.17
2022-11-14T01:41:15.735Z,7.70
2022-11-14T01:43:43.163Z,8.15
2022-11-14T01:46:25.765Z,7.93
2022-11-14T01:48:54.217Z,7.96
2022-11-14T01:51:32.503Z,8.05
2022-11-14T01:54:02.399Z,8.09
2022-11-14T01:56:46.550Z,7.87
2022-11-14T01:59:18.025Z,8.42
2022-11-14T02:01:48.069Z,8.40
2022-11-14T02:04:27.249Z,8.08
2022-11-14T02:06:57.258Z,8.16
2022-11-14T02:09:24.109Z,8.20
2022-11-14T02:11:51.997Z,8.24
2022-11-14T02:14:18.303Z,8.30
2022-11-14T02:16:55.646Z,8.05
2022-11-14T02:19:52.306Z,8.21
2022-11-14T02:22:19.091Z,8.19
2022-11-14T02:24:46.073Z,8.12
2022-11-14T02:27:14.364Z,8.35
2022-11-14T02:29:40.879Z,8.51
2022-11-14T02:32:10.626Z,8.21
2022-11-14T02:34:37.942Z,8.36
2022-11-14T02:37:04.396Z,8.57
2022-11-14T02:39:30.799Z,8.27
2022-11-14T02:41:57.203Z,8.06
2022-11-14T02:44:23.730Z,8.26
2022-11-14T02:46:50.162Z,8.37
2022-11-14T02:49:16.532Z,8.20
2022-11-14T02:51:43.112Z,8.21
2022-11-14T02:54:09.480Z,8.50
2022-11-14T02:56:35.869Z,8.86
2022-11-14T02:59:02.184Z,8.71
2022-11-14T03:01:28.623Z,8.55
2022-11-14T03:03:55.076Z,8.78
2022-11-14T03:06:21.434Z,8.64
2022-11-14T03:08:47.740Z,8.83
2022-11-14T03:11:14.116Z,8.60
2022-11-14T03:13:40.533Z,8.71
2022-11-14T03:16:08.829Z,8.54
2022-11-14T03:18:35.833Z,9.02
2022-11-14T03:21:11.765Z,8.63
2022-11-14T03:23:38.184Z,8.94
2022-11-14T03:26:07.495Z,8.86
2022-11-14T03:28:34.340Z,8.71
2022-11-14T03:31:00.709Z,8.57
2022-11-14T03:33:27.090Z,9.18
2022-11-14T03:35:53.437Z,8.99
2022-11-14T03:38:23.103Z,8.71
2022-11-14T03:40:50.640Z,9.15
2022-11-14T03:43:17.744Z,8.33
2022-11-14T03:45:44.740Z,8.92
2022-11-14T03:48:11.562Z,8.42
2022-11-14T03:50:37.963Z,8.79
2022-11-14T03:53:04.558Z,8.99
2022-11-14T03:55:30.977Z,8.85
2022-11-14T03:57:57.328Z,8.92
2022-11-14T04:00:23.728Z,8.77
2022-11-14T04:02:50.084Z,8.26
2022-11-14T04:05:16.531Z,8.81
2022-11-14T04:07:42.867Z,8.78
2022-11-14T04:10:09.309Z,8.91
2022-11-14T04:12:35.624Z,8.46
2022-11-14T04:15:01.988Z,8.80
2022-11-14T04:17:28.352Z,8.90
2022-11-14T04:19:54.690Z,8.35
2022-11-14T04:22:21.100Z,8.46
2022-11-14T04:24:47.549Z,8.92
2022-11-14T04:27:13.911Z,8.87
2022-11-14T04:29:40.241Z,8.77
2022-11-14T04:32:06.608Z,8.83
2022-11-14T04:34:33.096Z,8.87
2022-11-14T04:36:59.490Z,8.76
2022-11-14T04:39:25.936Z,9.12
2022-11-14T04:41:52.282Z,9.10
2022-11-14T04:44:18.626Z,9.08
2022-11-14T04:46:45.027Z,8.81
2022-11-14T04:49:11.355Z,8.66
2022-11-14T04:51:37.695Z,9.10
2022-11-14T04:54:04.144Z,8.70
2022-11-14T04:56:30.537Z,8.85
2022-11-14T04:58:56.972Z,9.05
2022-11-14T05:01:23.363Z,9.12
2022-11-14T05:03:49.741Z,9.19
2022-11-14T05:06:16.247Z,8.54
2022-11-14T05:08:42.765Z,9.32
2022-11-14T05:11:14.650Z,9.29
2022-11-14T05:13:41.085Z,9.36
2022-11-14T05:16:07.618Z,9.36
2022-11-14T05:18:34.035Z,9.18
2022-11-14T05:21:01.136Z,9.50
2022-11-14T05:23:27.792Z,9.14
2022-11-14T05:26:05.716Z,9.25
2022-11-14T05:28:32.791Z,9.04
2022-11-14T05:31:04.470Z,9.44
2022-11-14T05:33:31.297Z,8.95
2022-11-14T05:36:09.145Z,9.26
2022-11-14T05:38:35.790Z,9.13
2022-11-14T05:41:13.696Z,9.42
2022-11-14T05:43:40.836Z,9.24
2022-11-14T05:46:11.021Z,9.21
2022-11-14T05:48:38.201Z,9.28
2022-11-14T05:51:06.814Z,9.20
2022-11-14T05:53:34.200Z,8.88
2022-11-14T05:56:06.514Z,8.79
2022-11-14T05:58:34.130Z,8.96
2022-11-14T06:01:08.818Z,9.05
2022-11-14T06:03:38.372Z,8.89
2022-11-14T06:06:07.162Z,8.86
2022-11-14T06:08:34.471Z,8.94
2022-11-14T06:11:06.378Z,8.88
2022-11-14T06:13:33.537Z,9.13
2022-11-14T06:16:05.027Z,9.21
2022-11-14T06:18:32.852Z,9.04
2022-11-14T06:21:08.167Z,9.18
2022-11-14T06:23:34.699Z,9.07
2022-11-14T06:26:02.901Z,8.45
2022-11-14T06:28:30.115Z,8.98
2022-11-14T06:31:00.943Z,9.07
2022-11-14T06:33:28.536Z,8.47
2022-11-14T06:35:59.389Z,9.10
2022-11-14T06:38:26.211Z,8.40
2022-11-14T06:40:52.801Z,8.87
2022-11-14T06:43:19.109Z,8.81
2022-11-14T06:45:45.520Z,8.77
2022-11-14T06:48:11.853Z,8.20
2022-11-14T06:50:38.210Z,8.35
2022-11-14T06:53:04.528Z,8.72
2022-11-14T06:55:30.953Z,8.59
2022-11-14T06:57:57.276Z,8.82
2022-11-14T07:00:23.747Z,9.05
2022-11-14T07:02:50.187Z,8.70
2022-11-14T07:05:16.590Z,9.12
2022-11-14T07:07:42.892Z,8.81
2022-11-14T07:10:09.744Z,8.92
2022-11-14T07:12:36.099Z,8.45
2022-11-14T07:15:02.416Z,9.34
2022-11-14T07:17:31.441Z,9.24
2022-11-14T07:19:58.030Z,9.22
2022-11-14T07:22:24.372Z,9.12
2022-11-14T07:24:50.707Z,9.33
2022-11-14T07:27:17.032Z,9.20
2022-11-14T07:29:43.347Z,9.45
2022-11-14T07:32:09.641Z,9.48
2022-11-14T07:34:35.949Z,9.16
2022-11-14T07:37:02.443Z,9.17
2022-11-14T07:39:28.977Z,9.27
2022-11-14T07:41:55.284Z,9.40
2022-11-14T07:44:21.608Z,9.62
2022-11-14T07:46:49.993Z,9.61
2022-11-14T07:49:17.009Z,9.41
2022-11-14T07:51:43.360Z,9.39
2022-11-14T07:54:11.920Z,9.26
2022-11-14T07:56:38.740Z,9.65
2022-11-14T07:59:05.120Z,9.48
2022-11-14T08:01:31.553Z,9.64
2022-11-14T08:03:57.938Z,9.08
2022-11-14T08:06:24.283Z,9.46
2022-11-14T08:08:50.636Z,9.61
2022-11-14T08:11:36.902Z,9.75
2022-11-14T08:14:03.301Z,9.59
2022-11-14T08:16:29.613Z,9.66
2022-11-14T08:18:55.958Z,9.58
2022-11-14T08:21:22.414Z,9.80
2022-11-14T08:23:48.812Z,9.60
2022-11-14T08:26:15.158Z,9.86
2022-11-14T08:28:41.657Z,9.74
2022-11-14T08:31:10.123Z,9.79
2022-11-14T08:33:36.469Z,9.90
2022-11-14T08:36:03.694Z,10.11
2022-11-14T08:38:31.988Z,10.20
2022-11-14T08:40:59.489Z,10.19
2022-11-14T08:43:26.339Z,9.85
2022-11-14T08:45:52.724Z,10.20
2022-11-14T08:48:19.114Z,10.22
2022-11-14T08:50:45.585Z,10.46
2022-11-14T08:53:11.928Z,10.44
2022-11-14T08:55:43.961Z,10.28
2022-11-14T08:58:10.286Z,10.01
2022-11-14T09:00:36.633Z,10.23
2022-11-14T09:03:08.632Z,10.33
2022-11-14T09:05:36.366Z,10.57
2022-11-14T09:08:03.902Z,10.35
2022-11-14T09:10:30.340Z,10.52
2022-11-14T09:13:00.756Z,10.39
2022-11-14T09:15:28.999Z,10.44
2022-11-14T09:17:56.674Z,10.94
2022-11-14T09:20:29.816Z,11.01
2022-11-14T09:23:00.025Z,11.05
2022-11-14T09:25:26.504Z,10.88
2022-11-14T09:27:53.403Z,10.78
2022-11-14T09:30:19.899Z,10.77
2022-11-14T09:32:46.333Z,11.01
2022-11-14T09:35:12.814Z,10.89
2022-11-14T09:37:39.669Z,11.48
2022-11-14T09:40:07.209Z,11.27
2022-11-14T09:43:03.366Z,11.25
2022-11-14T09:45:30.252Z,11.23
2022-11-14T09:48:06.705Z,11.16
2022-11-14T09:50:37.033Z,11.32
2022-11-14T09:53:10.356Z,11.47
2022-11-14T09:55:37.573Z,11.22
2022-11-14T09:58:05.251Z,11.63
2022-11-14T10:01:04.969Z,11.52
2022-11-14T10:04:09.350Z,11.58
2022-11-14T10:06:53.001Z,11.45
2022-11-14T10:09:58.094Z,11.74
2022-11-14T10:12:43.164Z,11.79
2022-11-14T10:15:23.945Z,11.67
2022-11-14T10:18:05.291Z,11.75
2022-11-14T10:20:44.697Z,11.74
2022-11-14T10:23:23.147Z,11.55
2022-11-14T10:26:16.126Z,11.79
2022-11-14T10:29:33.240Z,11.56
2022-11-14T10:32:18.877Z,11.54
2022-11-14T10:35:01.527Z,11.84
2022-11-14T10:37:42.296Z,11.74
2022-11-14T10:40:40.997Z,11.78
2022-11-14T10:43:18.712Z,11.71
2022-11-14T10:45:50.724Z,11.67
2022-11-14T10:48:31.533Z,11.91
2022-11-14T10:51:02.591Z,11.72
2022-11-14T10:53:47.165Z,11.82
2022-11-14T10:56:14.624Z,11.80
2022-11-14T10:58:48.441Z,11.48
2022-11-14T11:01:39.696Z,11.98
2022-11-14T11:04:14.889Z,12.10
2022-11-14T11:06:41.412Z,12.00
2022-11-14T11:09:31.383Z,12.13
2022-11-14T11:12:01.672Z,12.27
2022-11-14T11:14:29.460Z,12.06
2022-11-14T11:17:15.559Z,12.31
2022-11-14T11:19:42.870Z,12.30
2022-11-14T11:22:35.090Z,12.05
2022-11-14T11:25:01.490Z,12.13
2022-11-14T11:27:29.367Z,12.12
2022-11-14T11:30:04.135Z,12.27
2022-11-14T11:32:30.688Z,12.27
2022-11-14T11:35:00.094Z,12.57
2022-11-14T11:37:35.511Z,12.76
2022-11-14T11:40:06.600Z,12.72
2022-11-14T11:43:31.677Z,12.52
2022-11-14T11:45:34.605Z,12.56
2022-11-14T11:48:08.945Z,12.48
2022-11-14T11:50:36.513Z,12.62
2022-11-14T11:53:22.123Z,12.69
2022-11-14T11:55:53.248Z,12.76
2022-11-14T11:58:27.623Z,12.74
2022-11-14T12:00:57.820Z,13.07
2022-11-14T12:03:25.975Z,12.70
2022-11-14T12:05:52.334Z,13.26
2022-11-14T12:08:30.912Z,13.36
2022-11-14T12:10:59.095Z,13.42
2022-11-14T12:13:46.064Z,13.09
2022-11-14T12:16:36.610Z,12.81
2022-11-14T12:19:32.232Z,13.28
2022-11-14T12:22:29.998Z,13.22
2022-11-14T12:25:17.115Z,13.20
2022-11-14T12:28:09.865Z,13.15
2022-11-14T12:30:39.334Z,12.91
2022-11-14T12:33:16.147Z,12.91
2022-11-14T12:35:52.387Z,12.63
2022-11-14T12:38:21.054Z,12.75
2022-11-14T12:40:54.206Z,13.00
2022-11-14T12:43:37.826Z,12.81
2022-11-14T12:46:11.368Z,13.03
2022-11-14T12:48:38.930Z,12.81
2022-11-14T12:51:25.219Z,12.62
2022-11-14T12:53:52.650Z,12.95
2022-11-14T12:56:31.287Z,13.13
2022-11-14T12:59:13.350Z,13.12
2022-11-14T13:01:51.971Z,13.12
2022-11-14T13:04:42.963Z,13.13
2022-11-14T13:07:33.895Z,13.22
2022-11-14T13:10:14.638Z,13.10
2022-11-14T13:13:01.658Z,13.23
2022-11-14T13:15:49.411Z,13.21
2022-11-14T13:18:45.050Z,13.06
2022-11-14T13:21:45.614Z,12.97
2022-11-14T13:24:21.461Z,13.25
2022-11-14T13:26:50.597Z,12.95
2022-11-14T13:29:40.955Z,13.23
2022-11-14T13:32:11.805Z,13.03
2022-11-14T13:34:58.327Z,13.07
2022-11-14T13:37:42.273Z,12.64
2022-11-14T13:40:35.378Z,12.95
2022-11-14T13:43:12.697Z,13.14
2022-11-14T13:46:06.855Z,13.20
2022-11-14T13:49:03.001Z,12.95
2022-11-14T13:51:46.423Z,12.94
2022-11-14T13:54:17.845Z,13.06
2022-11-14T13:57:00.893Z,12.89
2022-11-14T13:59:48.180Z,13.12
2022-11-14T14:02:40.451Z,13.12
2022-11-14T14:05:30.041Z,13.07
2022-11-14T14:08:01.493Z,12.78
2022-11-14T14:10:59.326Z,13.02
2022-11-14T14:13:49.827Z,13.05
2022-11-14T14:16:41.650Z,13.08
2022-11-14T14:19:24.505Z,12.83
2022-11-14T14:22:07.233Z,12.96
2022-11-14T14:24:59.479Z,12.93
2022-11-14T14:28:05.118Z,13.02
2022-11-14T14:30:31.492Z,13.02
2022-11-14T14:33:07.032Z,13.03
2022-11-14T14:35:40.223Z,12.88
2022-11-14T14:38:13.206Z,12.80
2022-11-14T14:40:41.869Z,13.02
2022-11-14T14:43:22.123Z,13.04
2022-11-14T14:45:53.079Z,12.69
2022-11-14T14:48:25.085Z,12.87
2022-11-14T14:50:56.534Z,12.76
2022-11-14T14:53:25.637Z,12.82
2022-11-14T14:56:04.278Z,12.93
2022-11-14T14:58:33.479Z,12.57
2022-11-14T15:01:04.927Z,12.96
2022-11-14T15:03:40.446Z,12.77
2022-11-14T15:06:32.900Z,12.96
2022-11-14T15:09:08.124Z,12.77
2022-11-14T15:11:39.786Z,12.96
2022-11-14T15:14:06.782Z,12.73
2022-11-14T15:16:33.546Z,12.73
2022-11-14T15:19:00.660Z,12.77
2022-11-14T15:21:28.871Z,12.70
2022-11-14T15:24:10.642Z,12.93
2022-11-14T15:26:37.049Z,12.39
2022-11-14T15:29:16.577Z,12.53
2022-11-14T15:31:52.740Z,12.76
2022-11-14T15:34:26.592Z,12.66
2022-11-14T15:37:25.984Z,12.77
2022-11-14T15:39:52.442Z,12.81
2022-11-14T15:42:18.766Z,12.87
2022-11-14T15:44:46.811Z,12.70
2022-11-14T15:47:19.752Z,12.48
2022-11-14T15:50:01.010Z,12.73
2022-11-14T15:52:33.297Z,12.74
2022-11-14T15:54:59.877Z,12.45
2022-11-14T15:57:26.381Z,12.83
2022-11-14T15:59:52.870Z,12.11
2022-11-14T16:02:22.892Z,12.68
2022-11-14T16:04:51.888Z,12.57
2022-11-14T16:07:19.124Z,12.83
2022-11-14T16:09:45.674Z,12.60
2022-11-14T16:12:11.961Z,12.21
2022-11-14T16:14:38.465Z,12.83
2022-11-14T16:17:04.994Z,12.82
2022-11-14T16:19:31.751Z,12.78
2022-11-14T16:22:02.849Z,12.80
2022-11-14T16:24:34.003Z,12.67
2022-11-14T16:27:00.850Z,12.64
2022-11-14T16:29:27.350Z,12.38
2022-11-14T16:31:56.454Z,12.39
2022-11-14T16:34:25.876Z,12.78
2022-11-14T16:37:02.737Z,12.70
2022-11-14T16:39:29.808Z,12.54
2022-11-14T16:42:02.854Z,12.79
2022-11-14T16:44:30.156Z,12.70
2022-11-14T16:46:56.565Z,12.43
2022-11-14T16:49:23.024Z,12.55
2022-11-14T16:51:51.296Z,12.58
2022-11-14T16:54:19.194Z,12.62
2022-11-14T16:56:45.599Z,12.50
2022-11-14T16:59:12.313Z,12.53
2022-11-14T17:01:39.042Z,12.72
2022-11-14T17:04:05.719Z,12.06
2022-11-14T17:06:32.189Z,11.96
2022-11-14T17:08:59.871Z,12.78
2022-11-14T17:11:26.729Z,12.76
2022-11-14T17:13:55.164Z,12.78
2022-11-14T17:16:21.539Z,12.64
2022-11-14T17:18:53.794Z,12.63
2022-11-14T17:21:20.824Z,12.48
2022-11-14T17:23:47.234Z,12.56
2022-11-14T17:26:14.117Z,12.76
2022-11-14T17:28:41.443Z,12.48
2022-11-14T17:31:08.585Z,12.69
2022-11-14T17:33:35.742Z,12.63
2022-11-14T17:36:04.403Z,12.74
2022-11-14T17:38:35.031Z,12.44
2022-11-14T17:41:05.537Z,12.71
2022-11-14T17:43:39.572Z,12.59
2022-11-14T17:46:12.599Z,12.26
2022-11-14T17:48:42.019Z,12.43
2022-11-14T17:51:12.587Z,12.31
2022-11-14T17:53:39.516Z,12.28
2022-11-14T17:56:07.705Z,11.86
2022-11-14T17:58:34.204Z,12.00
2022-11-14T18:01:00.795Z,12.29
2022-11-14T18:03:27.555Z,12.08
2022-11-14T18:06:04.799Z,12.11
2022-11-14T18:08:31.483Z,11.77
2022-11-14T18:11:01.991Z,11.94
2022-11-14T18:13:28.436Z,12.09
2022-11-14T18:15:55.175Z,11.90
2022-11-14T18:18:21.513Z,11.47
2022-11-14T18:20:47.844Z,11.44
2022-11-14T18:23:14.284Z,11.39
2022-11-14T18:25:40.624Z,11.35
2022-11-14T18:28:07.084Z,11.34
2022-11-14T18:30:41.282Z,11.13
2022-11-14T18:33:08.368Z,11.36
2022-11-14T18:35:34.715Z,11.13
2022-11-14T18:38:01.129Z,11.22
2022-11-14T18:40:27.463Z,11.49
2022-11-14T18:42:54.327Z,11.17
2022-11-14T18:45:20.654Z,11.17
2022-11-14T18:47:47.035Z,10.94
2022-11-14T18:50:14.080Z,11.10
2022-11-14T18:52:40.465Z,11.16
2022-11-14T18:55:10.114Z,10.89
2022-11-14T18:57:36.581Z,10.82
2022-11-14T19:00:04.397Z,11.21
2022-11-14T19:02:31.639Z,11.51
2022-11-14T19:04:58.060Z,10.88
2022-11-14T19:07:25.969Z,11.54
2022-11-14T19:09:52.418Z,10.80
2022-11-14T19:12:18.843Z,11.57
2022-11-14T19:14:46.209Z,10.75
2022-11-14T19:17:13.481Z,11.38
2022-11-14T19:19:39.794Z,10.83
2022-11-14T19:22:06.243Z,11.33
2022-11-14T19:24:33.062Z,10.68
2022-11-14T19:26:59.383Z,10.80
2022-11-14T19:29:25.814Z,10.73
2022-11-14T19:31:53.213Z,11.24
2022-11-14T19:34:19.533Z,10.87
2022-11-14T19:36:59.233Z,11.43
2022-11-14T19:39:26.673Z,11.19
2022-11-14T19:41:53.098Z,10.60
2022-11-14T19:44:19.710Z,10.97
2022-11-14T19:46:47.869Z,11.05
2022-11-14T19:49:14.685Z,10.88
2022-11-14T19:51:41.034Z,11.00
2022-11-14T19:54:10.316Z,11.07
2022-11-14T19:56:37.058Z,10.48
2022-11-14T19:59:09.550Z,11.16
2022-11-14T20:01:44.186Z,10.70
2022-11-14T20:04:13.099Z,9.69
2022-11-14T20:06:44.047Z,10.57
2022-11-14T20:09:10.894Z,11.08
2022-11-14T20:11:37.831Z,11.11
2022-11-14T20:14:05.567Z,10.93
2022-11-14T20:16:34.181Z,11.18
2022-11-14T20:19:01.765Z,11.23
2022-11-14T20:21:32.780Z,10.63
2022-11-14T20:23:59.426Z,10.91
2022-11-14T20:26:25.885Z,10.50
2022-11-14T20:28:55.035Z,11.34
2022-11-14T20:31:25.569Z,10.65
2022-11-14T20:33:53.876Z,11.27
2022-11-14T20:36:24.185Z,10.53
2022-11-14T20:38:52.065Z,10.68
2022-11-14T20:41:19.926Z,10.85
2022-11-14T20:43:47.015Z,11.44
2022-11-14T20:46:16.150Z,10.41
2022-11-14T20:48:43.312Z,10.61
2022-11-14T20:51:19.443Z,11.30
2022-11-14T20:53:51.009Z,11.38
2022-11-14T20:56:18.114Z,11.07
2022-11-14T20:58:48.503Z,11.09
2022-11-14T21:01:16.082Z,11.64
2022-11-14T21:03:42.568Z,11.44
2022-11-14T21:06:12.252Z,11.72
2022-11-14T21:08:39.572Z,11.71
2022-11-14T21:11:18.185Z,11.63
2022-11-14T21:13:57.081Z,11.55
2022-11-14T21:16:32.413Z,11.89
2022-11-14T21:18:59.578Z,11.38
2022-11-14T21:21:27.422Z,11.81
2022-11-14T21:23:54.837Z,11.49
2022-11-14T21:26:24.535Z,11.72
2022-11-14T21:28:54.791Z,11.79
2022-11-14T21:31:31.554Z,11.90
2022-11-14T21:33:59.455Z,11.99
2022-11-14T21:36:44.260Z,11.74
2022-11-14T21:39:14.910Z,11.74
2022-11-14T21:41:42.331Z,11.22
2022-11-14T21:44:12.841Z,11.65
2022-11-14T21:46:39.242Z,11.92
2022-11-14T21:49:05.587Z,11.45
2022-11-14T21:51:32.003Z,11.91
2022-11-14T21:53:58.552Z,11.55
2022-11-14T21:56:27.593Z,11.94
2022-11-14T21:59:13.080Z,11.55
2022-11-14T22:02:02.724Z,12.20
2022-11-14T22:04:29.489Z,11.77
2022-11-14T22:06:56.082Z,12.05
2022-11-14T22:09:22.676Z,11.96
2022-11-14T22:11:49.063Z,12.06
2022-11-14T22:14:15.450Z,12.03
2022-11-14T22:16:41.876Z,11.89
2022-11-14T22:19:08.504Z,11.43
2022-11-14T22:21:34.861Z,11.42
2022-11-14T22:24:01.224Z,11.73
2022-11-14T22:26:27.797Z,12.08
2022-11-14T22:28:54.138Z,11.98
2022-11-14T22:31:22.667Z,12.25
2022-11-14T22:33:51.336Z,12.28
2022-11-14T22:36:23.664Z,11.51
2022-11-14T22:38:52.370Z,11.66
2022-11-14T22:41:28.997Z,11.89
2022-11-14T22:43:58.689Z,12.31
2022-11-14T22:46:25.362Z,12.32
2022-11-14T22:48:51.778Z,11.38
2022-11-14T22:51:21.162Z,12.33
2022-11-14T22:53:50.118Z,11.81
2022-11-14T22:56:18.372Z,12.25
2022-11-14T22:58:45.745Z,12.21
2022-11-14T23:01:14.502Z,11.28
2022-11-14T23:03:41.183Z,12.21
2022-11-14T23:06:14.283Z,11.58
2022-11-14T23:08:41.106Z,12.18
2022-11-14T23:11:10.717Z,12.45
2022-11-14T23:13:38.740Z,12.25
2022-11-14T23:16:07.859Z,12.14
2022-11-14T23:18:34.228Z,11.79
2022-11-14T23:21:12.303Z,11.49
2022-11-14T23:23:38.803Z,12.40
2022-11-14T23:26:07.533Z,11.75
2022-11-14T23:28:34.619Z,12.51
2022-11-14T23:31:01.702Z,12.56
2022-11-14T23:33:28.512Z,12.36
2022-11-14T23:35:55.024Z,11.97
2022-11-14T23:38:21.387Z,12.06
2022-11-14T23:40:59.460Z,12.07
2022-11-14T23:43:26.327Z,12.33
2022-11-14T23:45:52.790Z,12.01
2022-11-14T23:48:20.790Z,12.62
2022-11-14T23:50:55.467Z,12.63
2022-11-14T23:53:22.690Z,12.62
2022-11-14T23:55:57.269Z,12.63
2022-11-14T23:58:25.132Z,12.63
